Terminal Aerodrome Forecast
Issued by NWS

Home | Current Version | Previous Version | Text Only | Print | Product List | Glossary On
Versions: 1 2 3 4 5 6 7 8 9 10 11 12 13
000
FTUS44 KBMX 231426 AAA
TAFANB
TAF AMD
KANB 231426Z 2314/2412 26003KT P6SM SCT015
     FM231800 36005KT P6SM VCTS BKN045CB
     FM240300 36003KT P6SM BKN250
     FM240900 34003KT 4SM BR SCT250=

USA.gov is the U.S. government's official web portal to all federal, state and local government web resources and services.